Time;durP1;ratioP1;P1;durP2;ratioP2;P2;SDS_P1;SDS_P2;PMS_P1;PMS_P2;Temp;Humidity;BMP_temperature;BMP_pressure;BME280_temperature;BME280_humidity;BME280_pressure;Samples;Min_cycle;Max_cycle;Signal;HPM_P1;HPM_P2
2023/05/17 00:02:20;;;;;;;1.40;1.00;;;13.70;77.70;13.60;96494.00;;;;5061458;28;20191;-80
2023/05/17 00:04:47;;;;;;;2.00;1.10;;;13.70;77.30;13.60;96504.00;;;;5038500;28;20676;-81
2023/05/17 00:07:14;;;;;;;2.70;1.47;;;13.60;77.60;13.60;96504.00;;;;5046308;28;20213;-80
2023/05/17 00:09:42;;;;;;;1.07;0.90;;;13.60;78.40;13.60;96501.00;;;;5063735;28;20326;-80
2023/05/17 00:12:11;;;;;;;0.90;0.90;;;13.60;77.80;13.60;96504.00;;;;5068878;28;20228;-79
2023/05/17 00:14:38;;;;;;;2.03;1.30;;;13.60;77.90;13.60;96511.00;;;;5055157;28;20192;-80
2023/05/17 00:17:06;;;;;;;1.43;0.90;;;13.60;78.00;13.50;96504.00;;;;5062942;28;20280;-80
2023/05/17 00:19:33;;;;;;;1.27;1.00;;;13.60;78.30;13.50;96512.00;;;;5072292;28;20283;-81
2023/05/17 00:22:00;;;;;;;1.00;0.90;;;13.60;77.40;13.50;96508.00;;;;5064668;28;20238;-81
2023/05/17 00:24:28;;;;;;;1.50;1.10;;;13.60;77.20;13.50;96503.00;;;;5045327;28;20275;-81
2023/05/17 00:26:55;;;;;;;3.37;1.10;;;13.60;77.00;13.50;96508.00;;;;5037258;28;20263;-80
2023/05/17 00:29:24;;;;;;;2.57;1.07;;;13.60;77.00;13.50;96508.00;;;;5039751;28;20240;-81
2023/05/17 00:31:52;;;;;;;1.57;1.10;;;13.60;77.00;13.50;96511.00;;;;5052709;28;20193;-79
2023/05/17 00:34:19;;;;;;;1.70;1.03;;;13.50;77.40;13.40;96515.00;;;;5039426;28;20195;-79
2023/05/17 00:36:46;;;;;;;2.73;1.40;;;13.50;77.40;13.40;96508.00;;;;5050201;28;20196;-81
2023/05/17 00:39:14;;;;;;;1.70;0.90;;;13.50;77.20;13.40;96515.00;;;;5061547;28;20276;-80
2023/05/17 00:41:41;;;;;;;2.03;1.10;;;13.50;77.20;13.40;96517.00;;;;5058938;28;20225;-80
2023/05/17 00:44:08;;;;;;;3.13;1.27;;;13.50;77.00;13.40;96504.00;;;;5056546;28;20232;-80
2023/05/17 00:46:38;;;;;;;2.83;1.23;;;13.50;76.90;13.40;96517.00;;;;5056840;28;20249;-80
2023/05/17 00:49:05;;;;;;;2.20;1.10;;;13.50;76.70;13.40;96517.00;;;;5075975;28;20275;-80
2023/05/17 00:51:35;;;;;;;0.90;0.87;;;13.50;76.80;13.30;96516.00;;;;5043150;28;20287;-80
2023/05/17 00:54:04;;;;;;;2.27;1.10;;;13.40;76.60;13.30;96520.00;;;;5046344;28;20281;-80
2023/05/17 00:56:32;;;;;;;1.30;1.20;;;13.40;76.80;13.30;96522.00;;;;5063577;28;20292;-81
2023/05/17 00:59:01;;;;;;;0.87;0.87;;;13.40;77.10;13.40;96518.00;;;;5044272;28;20192;-80
2023/05/17 01:01:28;;;;;;;2.90;1.10;;;13.40;77.10;13.40;96527.00;;;;5058531;28;20212;-80
2023/05/17 01:03:57;;;;;;;2.03;0.90;;;13.40;76.60;13.30;96527.00;;;;5039524;28;20207;-80
2023/05/17 01:06:25;;;;;;;2.47;1.20;;;13.40;76.40;13.30;96528.00;;;;5048920;28;20303;-79
2023/05/17 01:08:53;;;;;;;3.20;1.40;;;13.40;76.50;13.30;96526.00;;;;5076057;28;20295;-80
2023/05/17 01:11:39;;;;;;;2.17;1.00;;;13.40;76.70;13.30;96529.00;;;;5069087;28;20218;-80
2023/05/17 01:14:25;;;;;;;1.87;1.10;;;13.40;76.00;13.30;96538.00;;;;5070335;28;20219;-80
2023/05/17 01:16:57;;;;;;;7.03;1.20;;;13.40;76.20;13.20;96527.00;;;;5073045;28;20244;-80
2023/05/17 01:19:53;;;;;;;2.83;1.13;;;13.40;76.20;13.20;96523.00;;;;5054294;28;20208;-79
2023/05/17 01:22:35;;;;;;;2.13;1.03;;;13.30;75.40;13.20;96526.00;;;;5051194;28;20253;-80
2023/05/17 01:25:17;;;;;;;1.83;1.03;;;13.30;76.30;13.20;96531.00;;;;5057209;28;20627;-80
2023/05/17 01:27:50;;;;;;;1.83;1.00;;;13.30;76.80;13.20;96535.00;;;;5033117;28;20232;-78
2023/05/17 01:30:21;;;;;;;2.27;1.40;;;13.30;77.20;13.20;96536.00;;;;5056697;28;20688;-79
2023/05/17 01:32:48;;;;;;;2.30;1.00;;;13.30;77.30;13.20;96536.00;;;;5058174;28;20193;-80
2023/05/17 01:35:16;;;;;;;2.53;0.90;;;13.30;77.30;13.20;96536.00;;;;5040299;28;20586;-80
2023/05/17 01:37:44;;;;;;;2.87;1.17;;;13.30;77.00;13.20;96540.00;;;;5065510;28;20307;-80
2023/05/17 01:40:13;;;;;;;2.43;1.27;;;13.30;76.90;13.20;96538.00;;;;5063342;28;20222;-79
2023/05/17 01:42:43;;;;;;;2.37;1.10;;;13.30;76.70;13.20;96536.00;;;;5060381;28;20232;-80
2023/05/17 01:45:21;;;;;;;2.27;1.00;;;13.30;76.80;13.20;96544.00;;;;5046890;28;20216;-79
2023/05/17 01:48:04;;;;;;;1.67;1.17;;;13.30;76.40;13.10;96544.00;;;;5060207;28;20639;-78
2023/05/17 01:50:35;;;;;;;3.97;1.47;;;13.20;76.40;13.10;96550.00;;;;5068676;28;20220;-79
2023/05/17 01:53:17;;;;;;;2.67;1.13;;;13.20;76.70;13.10;96555.00;;;;5071121;28;20204;-80
2023/05/17 01:55:51;;;;;;;2.60;1.73;;;13.20;76.70;13.10;96556.00;;;;5071975;28;20204;-80
2023/05/17 01:58:33;;;;;;;3.43;1.43;;;13.20;77.00;13.10;96555.00;;;;5072063;28;20207;-80
2023/05/17 02:01:04;;;;;;;2.43;1.30;;;13.20;77.40;13.10;96553.00;;;;5074477;28;20235;-79
2023/05/17 02:03:31;;;;;;;2.30;1.00;;;13.20;77.30;13.10;96544.00;;;;5057169;28;20283;-80
2023/05/17 02:05:59;;;;;;;3.07;1.10;;;13.20;77.00;13.10;96554.00;;;;5071394;28;20231;-80
2023/05/17 02:08:26;;;;;;;3.03;1.40;;;13.20;76.70;13.10;96553.00;;;;5069741;28;20220;-80
2023/05/17 02:10:54;;;;;;;3.43;1.10;;;13.10;76.80;13.00;96552.00;;;;5069737;28;20712;-80
2023/05/17 02:13:21;;;;;;;4.97;1.60;;;13.10;76.90;13.10;96557.00;;;;5064889;28;20278;-79
2023/05/17 02:15:49;;;;;;;1.63;1.30;;;13.20;77.00;13.10;96546.00;;;;5045819;28;20204;-80
2023/05/17 02:18:20;;;;;;;3.37;1.30;;;13.10;76.90;13.10;96546.00;;;;5061927;28;20218;-80
2023/05/17 02:20:48;;;;;;;2.93;1.30;;;13.20;76.70;13.10;96554.00;;;;5064386;28;20217;-80
2023/05/17 02:23:15;;;;;;;1.87;1.30;;;13.10;76.40;13.10;96553.00;;;;5058941;28;20220;-80
2023/05/17 02:25:42;;;;;;;1.30;1.10;;;13.10;76.10;13.10;96561.00;;;;5059220;28;20273;-83
2023/05/17 02:28:10;;;;;;;1.50;1.03;;;13.10;75.90;13.00;96559.00;;;;5075583;28;20220;-80
2023/05/17 02:30:39;;;;;;;1.87;1.20;;;13.10;75.60;13.00;96562.00;;;;5047604;28;20212;-80
2023/05/17 02:33:07;;;;;;;1.10;1.00;;;13.10;75.70;13.00;96559.00;;;;5045892;28;20200;-80
2023/05/17 02:35:36;;;;;;;2.27;1.00;;;13.10;75.80;13.00;96558.00;;;;5068909;28;20197;-80
2023/05/17 02:38:04;;;;;;;2.07;1.20;;;13.10;75.80;12.90;96562.00;;;;5055191;28;20283;-79
2023/05/17 02:40:33;;;;;;;2.50;1.37;;;13.10;75.80;12.90;96563.00;;;;5051001;28;20303;-80
2023/05/17 02:43:00;;;;;;;2.40;1.17;;;13.00;75.50;12.90;96566.00;;;;5049169;28;20287;-80
2023/05/17 02:45:29;;;;;;;1.53;1.00;;;13.00;75.50;12.90;96557.00;;;;5066965;28;20258;-80
2023/05/17 02:48:01;;;;;;;1.23;0.83;;;13.00;75.50;12.90;96567.00;;;;5046253;28;20228;-80
2023/05/17 02:50:28;;;;;;;1.30;1.00;;;13.00;76.10;12.90;96574.00;;;;5064283;28;20217;-79
2023/05/17 02:52:59;;;;;;;2.23;1.33;;;13.00;75.50;12.90;96569.00;;;;5065456;28;20201;-80
2023/05/17 02:55:26;;;;;;;1.97;1.10;;;13.00;75.10;12.90;96574.00;;;;5057694;28;20292;-79
2023/05/17 02:57:53;;;;;;;1.57;0.97;;;13.00;75.40;12.90;96574.00;;;;5056038;28;20211;-80
2023/05/17 03:00:21;;;;;;;1.97;1.10;;;13.00;75.50;12.90;96579.00;;;;5073502;28;20284;-80
2023/05/17 03:02:48;;;;;;;1.70;1.17;;;13.00;75.60;12.90;96577.00;;;;5049574;28;20200;-80
2023/05/17 03:05:15;;;;;;;2.07;1.27;;;13.00;75.30;12.80;96580.00;;;;5057924;28;20256;-79
2023/05/17 03:07:43;;;;;;;1.60;1.20;;;13.00;75.00;12.80;96592.00;;;;5063545;28;20689;-79
2023/05/17 03:10:12;;;;;;;1.87;1.00;;;12.90;74.70;12.80;96587.00;;;;5052547;28;20228;-80
2023/05/17 03:12:40;;;;;;;1.03;0.90;;;12.90;74.90;12.70;96599.00;;;;5056270;28;20202;-80
2023/05/17 03:15:08;;;;;;;1.30;1.00;;;12.90;75.10;12.70;96601.00;;;;5059347;28;20279;-80
2023/05/17 03:17:36;;;;;;;2.60;1.30;;;12.90;75.00;12.70;96595.00;;;;5055734;28;20676;-80
2023/05/17 03:20:06;;;;;;;0.63;0.63;;;12.90;74.70;12.70;96602.00;;;;5046114;28;20220;-79
2023/05/17 03:22:35;;;;;;;1.63;1.20;;;12.90;74.60;12.70;96611.00;;;;5049936;28;20204;-80
2023/05/17 03:25:05;;;;;;;3.40;1.20;;;12.80;74.50;12.70;96615.00;;;;5049998;28;20270;-79
2023/05/17 03:27:35;;;;;;;1.40;1.00;;;12.80;74.70;12.70;96627.00;;;;5056963;28;20224;-78
2023/05/17 03:30:02;;;;;;;1.20;1.10;;;12.80;74.70;12.70;96621.00;;;;5050236;28;20843;-80
2023/05/17 03:32:32;;;;;;;1.20;0.90;;;12.80;74.70;12.70;96621.00;;;;5064402;28;20204;-80
2023/05/17 03:34:59;;;;;;;2.80;1.10;;;12.80;74.50;12.70;96623.00;;;;5057721;28;20196;-80
2023/05/17 03:37:27;;;;;;;1.03;0.97;;;12.80;74.60;12.70;96629.00;;;;5068753;28;20262;-79
2023/05/17 03:39:54;;;;;;;2.07;1.20;;;12.80;74.90;12.70;96633.00;;;;5050188;28;20220;-79
2023/05/17 03:42:22;;;;;;;2.17;1.10;;;12.80;74.80;12.70;96634.00;;;;5043243;28;20203;-79
2023/05/17 03:44:51;;;;;;;1.60;0.90;;;12.80;74.70;12.60;96649.00;;;;5072551;28;20243;-80
2023/05/17 03:47:18;;;;;;;1.60;0.80;;;12.70;74.60;12.60;96646.00;;;;5067714;28;20310;-80
2023/05/17 03:49:45;;;;;;;1.10;0.70;;;12.70;74.60;12.60;96648.00;;;;5033211;28;20220;-79
2023/05/17 03:52:12;;;;;;;1.90;0.93;;;12.70;75.10;12.60;96650.00;;;;5065446;28;20273;-80
2023/05/17 03:54:40;;;;;;;1.10;0.93;;;12.70;75.00;12.60;96646.00;;;;5039789;28;20207;-80
2023/05/17 03:57:07;;;;;;;1.77;0.80;;;12.70;74.90;12.60;96654.00;;;;5063805;28;20228;-80
2023/05/17 03:59:34;;;;;;;2.60;1.00;;;12.70;74.80;12.60;96664.00;;;;5041906;28;20770;-80
2023/05/17 04:02:03;;;;;;;2.13;1.00;;;12.70;74.80;12.60;96664.00;;;;5044447;28;20203;-80
2023/05/17 04:04:31;;;;;;;3.00;1.33;;;12.70;74.80;12.60;96671.00;;;;5060156;28;20219;-80
2023/05/17 04:06:59;;;;;;;0.70;0.70;;;12.70;74.90;12.60;96672.00;;;;5063103;28;20192;-79
2023/05/17 04:09:26;;;;;;;1.80;0.70;;;12.70;74.90;12.50;96677.00;;;;5058614;28;20311;-79
2023/05/17 04:11:53;;;;;;;2.00;0.90;;;12.60;74.90;12.50;96675.00;;;;5060358;28;20192;-79
2023/05/17 04:14:21;;;;;;;2.60;1.10;;;12.70;75.20;12.60;96678.00;;;;5058882;28;20207;-81
2023/05/17 04:16:48;;;;;;;1.53;0.80;;;12.60;75.10;12.50;96679.00;;;;5064127;28;20192;-80
2023/05/17 04:19:17;;;;;;;1.27;1.10;;;12.60;75.00;12.50;96687.00;;;;5064262;28;20211;-79
2023/05/17 04:21:45;;;;;;;1.53;0.80;;;12.60;74.70;12.50;96690.00;;;;5063930;28;20643;-80
2023/05/17 04:24:13;;;;;;;2.13;0.80;;;12.60;74.70;12.50;96693.00;;;;5070709;28;20192;-80
2023/05/17 04:26:40;;;;;;;2.80;1.20;;;12.60;74.90;12.50;96693.00;;;;5046304;28;20612;-79
2023/05/17 04:29:07;;;;;;;1.70;0.90;;;12.60;74.90;12.50;96701.00;;;;5051955;28;20224;-82
2023/05/17 04:31:35;;;;;;;1.73;0.80;;;12.60;74.70;12.50;96697.00;;;;5066781;28;20207;-81
2023/05/17 04:34:02;;;;;;;2.63;0.87;;;12.60;75.00;12.60;96698.00;;;;5060927;28;20200;-82
2023/05/17 04:36:31;;;;;;;1.87;0.97;;;12.60;74.70;12.60;96694.00;;;;5045318;28;20205;-81
2023/05/17 04:38:58;;;;;;;1.00;0.77;;;12.60;74.30;12.60;96699.00;;;;5061841;28;20288;-82
2023/05/17 04:41:26;;;;;;;1.47;0.70;;;12.70;74.40;12.70;96707.00;;;;5053212;28;20201;-82
2023/05/17 04:43:55;;;;;;;1.93;0.83;;;12.70;74.30;12.70;96702.00;;;;5076430;28;20192;-82
2023/05/17 04:46:24;;;;;;;1.87;1.03;;;12.70;74.10;12.70;96705.00;;;;5079274;28;20259;-81
2023/05/17 04:48:52;;;;;;;1.97;0.90;;;12.70;75.00;12.70;96701.00;;;;5060789;28;20212;-81
2023/05/17 04:51:19;;;;;;;1.93;0.87;;;12.70;74.50;12.70;96711.00;;;;5089382;28;20192;-82
2023/05/17 04:53:48;;;;;;;1.13;0.60;;;12.70;74.60;12.70;96706.00;;;;5058843;28;20202;-80
2023/05/17 04:56:15;;;;;;;1.00;0.83;;;12.70;74.70;12.80;96712.00;;;;5060114;28;20239;-81
2023/05/17 04:58:43;;;;;;;1.97;0.70;;;12.70;74.40;12.80;96709.00;;;;5045121;28;20284;-80
2023/05/17 05:01:10;;;;;;;1.23;0.80;;;12.80;74.20;12.80;96713.00;;;;5061052;28;20236;-80
2023/05/17 05:03:38;;;;;;;1.47;0.70;;;12.70;74.40;12.90;96716.00;;;;5064407;28;20235;-79
2023/05/17 05:06:06;;;;;;;1.13;1.00;;;12.80;74.40;12.90;96725.00;;;;5055682;28;20279;-80
2023/05/17 05:08:34;;;;;;;2.93;0.90;;;12.80;74.50;12.90;96715.00;;;;5072005;28;20229;-78
2023/05/17 05:11:02;;;;;;;2.10;0.80;;;12.90;74.50;13.00;96724.00;;;;5072144;28;20240;-81
2023/05/17 05:13:30;;;;;;;1.73;0.87;;;12.90;74.40;13.00;96731.00;;;;5065952;28;20279;-81
2023/05/17 05:15:57;;;;;;;1.40;0.80;;;12.90;74.50;13.00;96733.00;;;;5064332;28;20628;-81
2023/05/17 05:18:25;;;;;;;2.13;0.90;;;12.90;74.50;13.00;96727.00;;;;5056380;28;20286;-80
2023/05/17 05:20:52;;;;;;;2.43;0.87;;;13.00;74.40;13.00;96735.00;;;;5049747;28;20235;-81
2023/05/17 05:23:19;;;;;;;1.80;0.93;;;13.00;74.20;13.00;96733.00;;;;5044697;28;20269;-83
2023/05/17 05:25:47;;;;;;;1.53;1.00;;;13.00;74.30;13.00;96733.00;;;;5085785;28;20282;-79
2023/05/17 05:28:15;;;;;;;2.90;0.90;;;13.00;74.00;13.00;96735.00;;;;5052281;28;20213;-81
2023/05/17 05:30:43;;;;;;;2.10;1.00;;;13.00;73.80;13.00;96747.00;;;;5040296;28;20217;-83
2023/05/17 05:33:10;;;;;;;3.20;1.50;;;13.00;73.60;13.00;96742.00;;;;5045588;28;20212;-82
2023/05/17 05:35:38;;;;;;;2.17;1.13;;;13.00;73.80;13.00;96743.00;;;;5032650;28;20203;-82
2023/05/17 05:38:05;;;;;;;2.30;0.70;;;13.00;73.30;13.00;96758.00;;;;5039278;28;20197;-81
2023/05/17 05:40:33;;;;;;;1.63;0.80;;;13.00;73.30;12.90;96746.00;;;;5078724;28;20216;-79
2023/05/17 05:43:00;;;;;;;1.90;0.80;;;13.00;73.10;12.90;96758.00;;;;5068939;28;20228;-82
2023/05/17 05:45:29;;;;;;;4.47;0.80;;;13.00;73.20;12.90;96759.00;;;;5076555;28;20681;-81
2023/05/17 05:47:56;;;;;;;1.17;1.00;;;13.00;73.00;12.90;96758.00;;;;5052688;28;20286;-81
2023/05/17 05:50:23;;;;;;;2.37;0.90;;;13.00;72.90;12.90;96755.00;;;;5070206;28;20222;-82
2023/05/17 05:52:51;;;;;;;0.63;0.63;;;13.00;73.20;12.90;96760.00;;;;5065490;28;20535;-82
2023/05/17 05:55:18;;;;;;;2.37;1.03;;;12.90;73.20;12.90;96760.00;;;;5048227;28;20281;-83
2023/05/17 05:57:45;;;;;;;1.40;0.70;;;13.00;73.10;12.90;96758.00;;;;5058849;28;20868;-83
2023/05/17 06:00:16;;;;;;;1.97;1.07;;;12.90;73.30;12.90;96761.00;;;;5059257;28;20243;-82
2023/05/17 06:02:45;;;;;;;4.20;0.80;;;12.90;73.20;12.90;96755.00;;;;5077234;28;20204;-84
2023/05/17 06:05:12;;;;;;;2.20;0.90;;;12.90;73.00;12.90;96749.00;;;;5043200;28;20193;-83
2023/05/17 06:07:40;;;;;;;1.60;0.60;;;12.90;72.90;12.90;96759.00;;;;5042980;28;20268;-82
2023/05/17 06:10:09;;;;;;;0.63;0.60;;;13.00;73.00;12.90;96756.00;;;;5066099;28;20254;-80
2023/05/17 06:12:36;;;;;;;1.77;1.20;;;12.90;72.90;12.90;96767.00;;;;5044079;28;20211;-82
2023/05/17 06:15:06;;;;;;;1.80;0.80;;;13.00;72.90;12.90;96766.00;;;;5043725;28;20206;-82
2023/05/17 06:17:34;;;;;;;1.17;0.93;;;13.00;73.20;12.90;96775.00;;;;5058746;28;20200;-82
2023/05/17 06:20:04;;;;;;;1.60;0.90;;;13.00;73.40;12.90;96771.00;;;;5054994;28;20228;-81
2023/05/17 06:22:31;;;;;;;1.13;0.83;;;13.00;73.30;12.90;96772.00;;;;5036936;28;20205;-81
2023/05/17 06:24:58;;;;;;;3.60;1.07;;;13.00;73.20;12.90;96775.00;;;;5063349;28;20235;-80
2023/05/17 06:27:26;;;;;;;3.03;0.90;;;13.00;73.10;12.90;96783.00;;;;5023210;28;20272;-81
2023/05/17 06:29:54;;;;;;;0.87;0.80;;;13.00;73.10;13.00;96777.00;;;;5042293;28;20251;-80
2023/05/17 06:32:22;;;;;;;1.07;0.60;;;13.00;74.00;13.00;96789.00;;;;5063042;28;20283;-81
2023/05/17 06:34:49;;;;;;;1.07;0.73;;;13.00;73.20;13.00;96795.00;;;;5048482;28;20224;-82
2023/05/17 06:37:18;;;;;;;1.17;0.80;;;13.10;73.00;13.10;96793.00;;;;5065390;28;20647;-81
2023/05/17 06:39:46;;;;;;;2.07;0.80;;;13.10;73.20;13.10;96798.00;;;;5036058;28;20299;-80
2023/05/17 06:42:13;;;;;;;1.77;1.00;;;13.10;73.40;13.10;96799.00;;;;5040043;28;20643;-81
2023/05/17 06:44:40;;;;;;;1.20;0.50;;;13.10;73.40;13.10;96800.00;;;;5056468;28;20255;-81
2023/05/17 06:47:07;;;;;;;1.97;0.80;;;13.10;73.40;13.10;96811.00;;;;5039651;28;20780;-81
2023/05/17 06:49:35;;;;;;;3.30;1.10;;;13.20;73.10;13.10;96805.00;;;;5054701;28;20311;-81
2023/05/17 06:52:04;;;;;;;1.30;0.90;;;13.20;73.00;13.10;96814.00;;;;5054838;28;20224;-81
2023/05/17 06:54:33;;;;;;;1.13;0.83;;;13.20;73.20;13.20;96808.00;;;;5050772;28;20276;-81
2023/05/17 06:57:01;;;;;;;2.37;0.90;;;13.20;73.00;13.20;96814.00;;;;5044030;28;20915;-80
2023/05/17 06:59:28;;;;;;;1.87;0.80;;;13.20;72.90;13.20;96811.00;;;;5054668;28;20289;-81
2023/05/17 07:01:58;;;;;;;5.20;0.90;;;13.20;72.80;13.30;96831.00;;;;5058209;28;20220;-82
2023/05/17 07:04:26;;;;;;;1.67;0.80;;;13.30;73.10;13.40;96821.00;;;;5055835;28;20196;-81
2023/05/17 07:06:53;;;;;;;1.40;0.90;;;13.30;73.10;13.40;96825.00;;;;5047505;28;20197;-82
2023/05/17 07:09:21;;;;;;;2.93;0.93;;;13.30;73.30;13.40;96828.00;;;;5051150;28;20224;-81
2023/05/17 07:11:50;;;;;;;4.57;0.90;;;13.30;73.10;13.50;96831.00;;;;5056433;28;20291;-81
2023/05/17 07:14:17;;;;;;;1.70;0.90;;;13.40;73.20;13.50;96843.00;;;;5054688;22;20224;-80
2023/05/17 07:16:45;;;;;;;2.77;0.87;;;13.40;73.20;13.60;96836.00;;;;5058550;28;20196;-80
2023/05/17 07:19:12;;;;;;;1.90;0.73;;;13.50;73.10;13.70;96839.00;;;;5057282;28;20216;-81
2023/05/17 07:21:40;;;;;;;2.10;1.30;;;13.50;73.30;13.70;96842.00;;;;5042724;28;20199;-80
2023/05/17 07:24:08;;;;;;;1.97;0.90;;;13.60;73.40;13.80;96837.00;;;;5048026;28;20226;-80
2023/05/17 07:26:35;;;;;;;4.00;0.90;;;13.60;73.20;13.90;96847.00;;;;5044019;28;20284;-80
2023/05/17 07:29:04;;;;;;;2.87;0.80;;;13.70;73.40;13.90;96842.00;;;;5036881;28;20244;-81
2023/05/17 07:31:31;;;;;;;0.87;0.87;;;13.70;73.60;14.00;96851.00;;;;5038166;28;20284;-81
2023/05/17 07:33:58;;;;;;;1.57;0.60;;;13.80;73.80;14.10;96852.00;;;;5039264;28;20221;-81
2023/05/17 07:36:29;;;;;;;1.60;0.93;;;13.90;73.80;14.20;96852.00;;;;5044294;28;20196;-81
2023/05/17 07:38:56;;;;;;;1.63;1.10;;;13.90;73.60;14.40;96849.00;;;;5028101;28;20201;-81
2023/05/17 07:41:24;;;;;;;2.27;0.87;;;14.00;73.60;14.50;96859.00;;;;5029301;28;20708;-81
2023/05/17 07:43:52;;;;;;;2.73;0.87;;;14.10;74.10;14.60;96855.00;;;;5029355;28;20240;-80
2023/05/17 07:46:20;;;;;;;1.93;0.70;;;14.20;73.30;14.70;96857.00;;;;5034401;28;20542;-80
2023/05/17 07:48:48;;;;;;;1.00;0.60;;;14.30;73.00;14.80;96858.00;;;;5033400;28;20253;-80
2023/05/17 07:51:15;;;;;;;1.20;0.80;;;14.40;72.70;14.90;96859.00;;;;5038065;28;20705;-80
2023/05/17 07:53:42;;;;;;;2.37;0.93;;;14.50;72.80;15.00;96860.00;;;;5036552;28;20287;-81
2023/05/17 07:56:09;;;;;;;3.53;0.90;;;14.60;72.30;15.10;96860.00;;;;5013911;28;20581;-80
2023/05/17 07:58:37;;;;;;;0.90;0.80;;;14.70;72.30;15.20;96860.00;;;;5047312;28;20204;-80
2023/05/17 08:01:05;;;;;;;1.43;0.90;;;14.80;72.50;15.30;96866.00;;;;5032433;28;20212;-80
2023/05/17 08:03:33;;;;;;;1.33;0.60;;;14.90;72.40;15.40;96861.00;;;;5038242;28;20247;-80
2023/05/17 08:06:01;;;;;;;1.63;0.90;;;14.90;72.30;15.50;96864.00;;;;5037615;28;20228;-80
2023/05/17 08:08:28;;;;;;;1.83;0.97;;;15.00;72.10;15.60;96859.00;;;;5019135;28;20731;-81
2023/05/17 08:10:55;;;;;;;3.37;1.33;;;15.10;71.30;15.70;96858.00;;;;5024559;28;20256;-80
2023/05/17 08:13:23;;;;;;;3.73;1.37;;;15.20;71.20;15.80;96857.00;;;;5042897;28;20603;-81
2023/05/17 08:15:50;;;;;;;4.10;1.33;;;15.30;71.80;16.00;96858.00;;;;5036217;28;20205;-81
2023/05/17 08:18:17;;;;;;;2.70;1.10;;;15.40;72.00;16.10;96866.00;;;;5031790;28;20197;-81
2023/05/17 08:20:48;;;;;;;1.87;0.90;;;15.50;71.60;16.20;96868.00;;;;5037810;28;20229;-81
2023/05/17 08:23:15;;;;;;;4.50;0.90;;;15.60;71.40;16.40;96875.00;;;;5036875;28;20213;-81
2023/05/17 08:25:42;;;;;;;3.20;1.00;;;15.80;71.30;16.50;96873.00;;;;5038436;28;20730;-81
2023/05/17 08:28:09;;;;;;;1.30;1.07;;;15.90;71.20;16.70;96873.00;;;;5018362;28;20241;-81
2023/05/17 08:30:37;;;;;;;1.67;1.07;;;16.00;70.80;16.80;96877.00;;;;5037691;28;20221;-81
2023/05/17 08:33:04;;;;;;;1.23;0.70;;;16.10;70.60;16.90;96879.00;;;;5019014;28;20224;-81
2023/05/17 08:35:31;;;;;;;4.17;0.87;;;16.20;70.50;17.00;96875.00;;;;5043439;28;20728;-81
2023/05/17 08:38:00;;;;;;;1.80;1.10;;;16.30;70.70;17.10;96887.00;;;;5029592;28;20668;-81
2023/05/17 08:40:28;;;;;;;2.57;0.97;;;16.40;69.40;17.20;96884.00;;;;5037753;28;20276;-81
2023/05/17 08:42:56;;;;;;;2.53;1.20;;;16.50;70.00;17.30;96879.00;;;;5037249;28;20217;-80
2023/05/17 08:45:26;;;;;;;1.17;0.77;;;16.60;69.30;17.50;96875.00;;;;5020326;28;20197;-81
2023/05/17 08:47:54;;;;;;;1.43;0.97;;;16.70;69.20;17.70;96875.00;;;;5014907;28;20204;-81
2023/05/17 08:50:22;;;;;;;1.50;0.90;;;16.90;69.50;17.90;96887.00;;;;5038911;28;20245;-81
2023/05/17 08:52:51;;;;;;;2.53;0.77;;;17.00;69.60;18.00;96895.00;;;;5023528;28;20296;-81
2023/05/17 08:55:20;;;;;;;1.00;0.73;;;17.10;68.50;18.20;96888.00;;;;5033110;28;20193;-81
2023/05/17 08:57:49;;;;;;;1.17;0.93;;;17.20;67.90;18.40;96896.00;;;;5035404;28;20198;-81
2023/05/17 09:00:21;;;;;;;1.50;1.00;;;17.40;68.50;18.60;96895.00;;;;5019718;28;20288;-81
2023/05/17 09:02:49;;;;;;;1.63;0.80;;;17.60;68.50;18.70;96899.00;;;;5038059;28;20747;-81
2023/05/17 09:05:17;;;;;;;1.17;0.67;;;17.70;68.50;18.80;96916.00;;;;5023967;28;20716;-82
2023/05/17 09:07:45;;;;;;;1.30;0.77;;;17.80;68.20;18.90;96909.00;;;;5033766;28;20288;-82
2023/05/17 09:10:12;;;;;;;2.03;1.00;;;17.90;68.20;19.00;96919.00;;;;5034517;28;20239;-81
2023/05/17 09:12:41;;;;;;;1.93;0.90;;;18.00;67.60;19.10;96921.00;;;;5033766;28;20280;-82
2023/05/17 09:15:17;;;;;;;1.97;0.87;;;18.20;67.00;19.10;96917.00;;;;5033917;28;20241;-81
2023/05/17 09:17:52;;;;;;;2.73;0.97;;;18.30;65.40;19.10;96924.00;;;;5035166;28;20264;-81
2023/05/17 09:20:24;;;;;;;1.33;0.80;;;18.40;65.30;19.20;96932.00;;;;5037318;28;20199;-82
2023/05/17 09:22:52;;;;;;;1.57;0.87;;;18.40;65.50;19.20;96937.00;;;;5037174;28;20229;-81
2023/05/17 09:25:21;;;;;;;1.60;1.00;;;18.50;65.40;19.20;96932.00;;;;5039697;28;20621;-81
2023/05/17 09:27:52;;;;;;;2.67;0.83;;;18.50;64.70;19.30;96927.00;;;;5023810;28;20266;-81
2023/05/17 09:30:20;;;;;;;1.20;0.90;;;18.60;65.20;19.30;96930.00;;;;5036940;28;20596;-82
2023/05/17 09:32:52;;;;;;;1.63;0.83;;;18.70;64.50;19.30;96934.00;;;;5018859;28;20252;-81
2023/05/17 09:35:19;;;;;;;2.83;0.70;;;18.70;63.90;19.30;96933.00;;;;5035034;28;20221;-82
2023/05/17 09:37:47;;;;;;;2.63;0.93;;;18.70;63.90;19.30;96930.00;;;;5039209;28;20236;-81
2023/05/17 09:40:24;;;;;;;2.57;0.90;;;18.80;63.90;19.40;96932.00;;;;5020585;28;20208;-81
2023/05/17 09:42:53;;;;;;;2.70;0.90;;;18.90;62.60;19.50;96933.00;;;;5040290;28;20243;-82
2023/05/17 09:45:24;;;;;;;1.50;0.90;;;18.90;63.90;19.60;96930.00;;;;5037408;28;20771;-82
2023/05/17 09:47:52;;;;;;;1.67;1.00;;;19.00;63.40;19.70;96927.00;;;;5044121;28;20724;-82
2023/05/17 09:50:22;;;;;;;2.57;1.03;;;19.10;64.00;19.80;96941.00;;;;5041064;28;20301;-81
2023/05/17 09:52:49;;;;;;;2.00;1.10;;;19.20;64.10;19.90;96941.00;;;;5046089;28;20218;-82
2023/05/17 09:55:18;;;;;;;2.10;0.90;;;19.30;63.90;20.00;96933.00;;;;5038103;28;20217;-81
2023/05/17 09:57:45;;;;;;;1.57;1.23;;;19.40;64.00;20.10;96943.00;;;;5042796;28;20290;-80
2023/05/17 10:00:18;;;;;;;1.83;1.00;;;19.60;64.90;20.30;96944.00;;;;5023902;28;20193;-81
2023/05/17 10:02:50;;;;;;;2.83;1.60;;;19.70;63.00;20.30;96932.00;;;;5037547;28;20217;-81
2023/05/17 10:05:19;;;;;;;1.23;0.90;;;19.80;63.30;20.40;96934.00;;;;5039312;28;20651;-82
2023/05/17 10:07:50;;;;;;;1.03;0.70;;;20.00;63.00;20.50;96922.00;;;;5024447;28;20200;-82
2023/05/17 10:10:18;;;;;;;1.70;0.87;;;20.10;63.70;20.60;96928.00;;;;5039967;28;20220;-82
2023/05/17 10:12:47;;;;;;;1.10;0.80;;;20.20;64.30;20.80;96921.00;;;;5038993;28;20209;-81
2023/05/17 10:15:17;;;;;;;1.23;1.10;;;20.30;64.40;21.00;96927.00;;;;5041161;28;20239;-81
2023/05/17 10:17:46;;;;;;;1.23;0.93;;;20.50;62.70;21.10;96929.00;;;;5017112;28;20255;-82
2023/05/17 10:20:17;;;;;;;1.33;0.80;;;20.70;63.00;21.20;96933.00;;;;5037690;28;20232;-82
2023/05/17 10:22:45;;;;;;;2.20;0.90;;;20.80;61.40;21.30;96922.00;;;;5038552;28;20229;-81
2023/05/17 10:25:14;;;;;;;0.67;0.67;;;21.00;62.20;21.50;96928.00;;;;5043499;28;20225;-82
2023/05/17 10:27:41;;;;;;;1.20;0.70;;;21.10;62.10;21.60;96926.00;;;;5036243;28;20292;-82
2023/05/17 10:30:13;;;;;;;1.37;0.90;;;21.30;62.10;21.70;96921.00;;;;5032863;28;20238;-81
2023/05/17 10:32:43;;;;;;;1.20;0.90;;;21.40;62.10;21.80;96915.00;;;;5032414;28;20248;-82
2023/05/17 10:35:13;;;;;;;1.00;0.77;;;21.50;61.50;22.00;96928.00;;;;5031346;28;20221;-82
2023/05/17 10:37:41;;;;;;;1.23;0.70;;;21.60;60.90;22.00;96925.00;;;;5039433;28;20209;-82
2023/05/17 10:40:12;;;;;;;1.40;0.60;;;21.70;60.60;22.10;96923.00;;;;4993318;28;20196;-82
2023/05/17 10:42:46;;;;;;;1.23;0.60;;;21.80;60.90;22.20;96924.00;;;;5028759;28;20203;-82
2023/05/17 10:45:14;;;;;;;1.27;0.70;;;21.90;59.70;22.30;96920.00;;;;5030753;28;20237;-82
2023/05/17 10:47:44;;;;;;;0.70;0.67;;;22.00;59.70;22.30;96925.00;;;;5034298;28;20205;-82
2023/05/17 10:50:13;;;;;;;0.87;0.60;;;22.00;58.80;22.20;96926.00;;;;5036464;28;20303;-82
2023/05/17 10:52:49;;;;;;;0.70;0.50;;;22.00;57.50;22.10;96927.00;;;;5035066;28;20198;-83
2023/05/17 10:55:21;;;;;;;1.50;0.60;;;22.00;55.90;21.90;96925.00;;;;5012747;28;20195;-82
2023/05/17 10:58:15;;;;;;;1.73;0.67;;;21.90;55.20;21.70;96922.00;;;;5032447;28;20263;-81
2023/05/17 11:00:45;;;;;;;0.67;0.50;;;21.70;53.70;21.50;96917.00;;;;5027534;28;20228;-82
2023/05/17 11:03:17;;;;;;;0.60;0.40;;;21.60;55.30;21.40;96922.00;;;;5028417;28;20212;-82